sensor_id;sensor_type;location;lat;lon;timestamp;temperature;humidity
33881;DHT22;20172;47.530;10.256;2024-03-17T00:00:50;9.50;99.90
33881;DHT22;20172;47.530;10.256;2024-03-17T00:03:15;9.50;99.90
33881;DHT22;20172;47.530;10.256;2024-03-17T00:05:41;9.50;99.90
33881;DHT22;20172;47.530;10.256;2024-03-17T00:08:07;9.50;99.90
33881;DHT22;20172;47.530;10.256;2024-03-17T00:10:33;9.50;99.90
33881;DHT22;20172;47.530;10.256;2024-03-17T00:12:59;9.40;99.90
33881;DHT22;20172;47.530;10.256;2024-03-17T00:15:26;9.40;99.90
33881;DHT22;20172;47.530;10.256;2024-03-17T00:17:51;9.30;99.90
33881;DHT22;20172;47.530;10.256;2024-03-17T00:20:17;9.30;99.90
33881;DHT22;20172;47.530;10.256;2024-03-17T00:22:49;9.30;99.90
33881;DHT22;20172;47.530;10.256;2024-03-17T00:25:16;9.40;99.90
33881;DHT22;20172;47.530;10.256;2024-03-17T00:27:42;9.40;99.90
33881;DHT22;20172;47.530;10.256;2024-03-17T00:30:10;9.20;99.90
33881;DHT22;20172;47.530;10.256;2024-03-17T00:32:38;9.10;99.90
33881;DHT22;20172;47.530;10.256;2024-03-17T00:35:04;9.10;99.90
33881;DHT22;20172;47.530;10.256;2024-03-17T00:37:30;9.10;99.90
33881;DHT22;20172;47.530;10.256;2024-03-17T00:39:55;9.10;99.90
33881;DHT22;20172;47.530;10.256;2024-03-17T00:42:21;9.10;99.90
33881;DHT22;20172;47.530;10.256;2024-03-17T00:44:47;9.20;99.90
33881;DHT22;20172;47.530;10.256;2024-03-17T00:47:12;9.10;99.90
33881;DHT22;20172;47.530;10.256;2024-03-17T00:49:38;9.10;99.90
33881;DHT22;20172;47.530;10.256;2024-03-17T00:52:03;9.10;99.90
33881;DHT22;20172;47.530;10.256;2024-03-17T00:54:29;9.10;99.90
33881;DHT22;20172;47.530;10.256;2024-03-17T00:56:55;9.00;99.90
33881;DHT22;20172;47.530;10.256;2024-03-17T00:59:21;9.00;99.90
33881;DHT22;20172;47.530;10.256;2024-03-17T01:01:47;9.00;99.90
33881;DHT22;20172;47.530;10.256;2024-03-17T01:04:12;9.00;99.90
33881;DHT22;20172;47.530;10.256;2024-03-17T01:06:38;8.90;99.90
33881;DHT22;20172;47.530;10.256;2024-03-17T01:09:06;8.90;99.90
33881;DHT22;20172;47.530;10.256;2024-03-17T01:11:32;8.90;99.90
33881;DHT22;20172;47.530;10.256;2024-03-17T01:13:57;8.90;99.90
33881;DHT22;20172;47.530;10.256;2024-03-17T01:16:23;8.90;99.90
33881;DHT22;20172;47.530;10.256;2024-03-17T01:18:48;8.90;99.90
33881;DHT22;20172;47.530;10.256;2024-03-17T01:21:14;8.80;99.90
33881;DHT22;20172;47.530;10.256;2024-03-17T01:23:42;8.80;99.90
33881;DHT22;20172;47.530;10.256;2024-03-17T01:26:08;8.80;99.90
33881;DHT22;20172;47.530;10.256;2024-03-17T01:28:33;8.80;99.90
33881;DHT22;20172;47.530;10.256;2024-03-17T01:30:59;8.80;99.90
33881;DHT22;20172;47.530;10.256;2024-03-17T01:33:24;8.80;99.90
33881;DHT22;20172;47.530;10.256;2024-03-17T01:35:50;8.90;99.90
33881;DHT22;20172;47.530;10.256;2024-03-17T01:38:16;8.90;99.90
33881;DHT22;20172;47.530;10.256;2024-03-17T01:40:41;8.90;99.90
33881;DHT22;20172;47.530;10.256;2024-03-17T01:43:11;8.80;99.90
33881;DHT22;20172;47.530;10.256;2024-03-17T01:45:37;8.70;99.90
33881;DHT22;20172;47.530;10.256;2024-03-17T01:48:04;8.60;99.90
33881;DHT22;20172;47.530;10.256;2024-03-17T01:50:35;8.60;99.90
33881;DHT22;20172;47.530;10.256;2024-03-17T01:53:02;8.50;99.90
33881;DHT22;20172;47.530;10.256;2024-03-17T01:55:29;8.50;99.90
33881;DHT22;20172;47.530;10.256;2024-03-17T01:57:55;8.50;99.90
33881;DHT22;20172;47.530;10.256;2024-03-17T02:00:21;8.50;99.90
33881;DHT22;20172;47.530;10.256;2024-03-17T02:02:48;8.60;99.90
33881;DHT22;20172;47.530;10.256;2024-03-17T02:05:13;8.60;99.90
33881;DHT22;20172;47.530;10.256;2024-03-17T02:07:39;8.60;99.90
33881;DHT22;20172;47.530;10.256;2024-03-17T02:10:05;8.60;99.90
33881;DHT22;20172;47.530;10.256;2024-03-17T02:12:31;8.50;99.90
33881;DHT22;20172;47.530;10.256;2024-03-17T02:14:58;8.50;99.90
33881;DHT22;20172;47.530;10.256;2024-03-17T02:17:23;8.50;99.90
33881;DHT22;20172;47.530;10.256;2024-03-17T02:19:51;8.40;99.90
33881;DHT22;20172;47.530;10.256;2024-03-17T02:22:16;8.40;99.90
33881;DHT22;20172;47.530;10.256;2024-03-17T02:24:42;8.30;99.90
33881;DHT22;20172;47.530;10.256;2024-03-17T02:27:08;8.30;99.90
33881;DHT22;20172;47.530;10.256;2024-03-17T02:29:34;8.20;99.90
33881;DHT22;20172;47.530;10.256;2024-03-17T02:32:08;8.20;99.90
33881;DHT22;20172;47.530;10.256;2024-03-17T02:34:37;8.20;99.90
33881;DHT22;20172;47.530;10.256;2024-03-17T02:37:03;8.20;99.90
33881;DHT22;20172;47.530;10.256;2024-03-17T02:39:30;8.20;99.90
33881;DHT22;20172;47.530;10.256;2024-03-17T02:44:27;8.10;99.90
33881;DHT22;20172;47.530;10.256;2024-03-17T02:46:53;8.20;99.90
33881;DHT22;20172;47.530;10.256;2024-03-17T02:49:18;8.20;99.90
33881;DHT22;20172;47.530;10.256;2024-03-17T02:51:44;8.20;99.90
33881;DHT22;20172;47.530;10.256;2024-03-17T02:54:09;8.20;99.90
33881;DHT22;20172;47.530;10.256;2024-03-17T02:56:35;8.20;99.90
33881;DHT22;20172;47.530;10.256;2024-03-17T02:59:01;8.20;99.90
33881;DHT22;20172;47.530;10.256;2024-03-17T03:01:26;8.30;99.90
33881;DHT22;20172;47.530;10.256;2024-03-17T03:03:52;8.30;99.90
33881;DHT22;20172;47.530;10.256;2024-03-17T03:06:17;8.30;99.90
33881;DHT22;20172;47.530;10.256;2024-03-17T03:08:44;8.30;99.90
33881;DHT22;20172;47.530;10.256;2024-03-17T03:11:14;8.30;99.90
33881;DHT22;20172;47.530;10.256;2024-03-17T03:13:40;8.20;99.90
33881;DHT22;20172;47.530;10.256;2024-03-17T03:16:06;8.20;99.90
33881;DHT22;20172;47.530;10.256;2024-03-17T03:18:33;8.20;99.90
33881;DHT22;20172;47.530;10.256;2024-03-17T03:20:59;8.20;99.90
33881;DHT22;20172;47.530;10.256;2024-03-17T03:23:24;8.20;99.90
33881;DHT22;20172;47.530;10.256;2024-03-17T03:25:56;8.10;99.90
33881;DHT22;20172;47.530;10.256;2024-03-17T03:28:23;8.10;99.90
33881;DHT22;20172;47.530;10.256;2024-03-17T03:30:48;8.00;99.90
33881;DHT22;20172;47.530;10.256;2024-03-17T03:33:14;8.00;99.90
33881;DHT22;20172;47.530;10.256;2024-03-17T03:35:39;7.90;99.90
33881;DHT22;20172;47.530;10.256;2024-03-17T03:38:05;7.80;99.90
33881;DHT22;20172;47.530;10.256;2024-03-17T03:40:30;7.80;99.90
33881;DHT22;20172;47.530;10.256;2024-03-17T03:42:56;7.70;99.90
33881;DHT22;20172;47.530;10.256;2024-03-17T03:45:22;7.60;99.90
33881;DHT22;20172;47.530;10.256;2024-03-17T03:47:49;7.60;99.90
33881;DHT22;20172;47.530;10.256;2024-03-17T03:50:15;7.50;99.90
33881;DHT22;20172;47.530;10.256;2024-03-17T03:52:41;7.50;99.90
33881;DHT22;20172;47.530;10.256;2024-03-17T03:55:11;7.60;99.90
33881;DHT22;20172;47.530;10.256;2024-03-17T03:57:37;7.60;99.90
33881;DHT22;20172;47.530;10.256;2024-03-17T04:00:03;7.60;99.90
33881;DHT22;20172;47.530;10.256;2024-03-17T04:02:41;7.60;99.90
33881;DHT22;20172;47.530;10.256;2024-03-17T04:05:07;7.50;99.90
33881;DHT22;20172;47.530;10.256;2024-03-17T04:07:32;7.50;99.90
33881;DHT22;20172;47.530;10.256;2024-03-17T04:09:59;7.50;99.90
33881;DHT22;20172;47.530;10.256;2024-03-17T04:12:25;7.30;99.90
33881;DHT22;20172;47.530;10.256;2024-03-17T04:14:51;7.20;99.90
33881;DHT22;20172;47.530;10.256;2024-03-17T04:17:21;7.20;99.90
33881;DHT22;20172;47.530;10.256;2024-03-17T04:19:47;7.20;99.90
33881;DHT22;20172;47.530;10.256;2024-03-17T04:22:14;7.30;99.90
33881;DHT22;20172;47.530;10.256;2024-03-17T04:24:39;7.20;99.90
33881;DHT22;20172;47.530;10.256;2024-03-17T04:27:05;7.20;99.90
33881;DHT22;20172;47.530;10.256;2024-03-17T04:29:30;7.30;99.90
33881;DHT22;20172;47.530;10.256;2024-03-17T04:31:56;7.30;99.90
33881;DHT22;20172;47.530;10.256;2024-03-17T04:34:21;7.30;99.90
33881;DHT22;20172;47.530;10.256;2024-03-17T04:36:47;7.20;99.90
33881;DHT22;20172;47.530;10.256;2024-03-17T04:39:12;7.20;99.90
33881;DHT22;20172;47.530;10.256;2024-03-17T04:41:38;7.10;99.90
33881;DHT22;20172;47.530;10.256;2024-03-17T04:44:06;7.10;99.90
33881;DHT22;20172;47.530;10.256;2024-03-17T04:46:32;7.20;99.90
33881;DHT22;20172;47.530;10.256;2024-03-17T04:48:57;7.20;99.90
33881;DHT22;20172;47.530;10.256;2024-03-17T04:51:23;7.20;99.90
33881;DHT22;20172;47.530;10.256;2024-03-17T04:53:49;7.10;99.90
33881;DHT22;20172;47.530;10.256;2024-03-17T04:56:14;7.00;99.90
33881;DHT22;20172;47.530;10.256;2024-03-17T04:58:39;6.90;99.90
33881;DHT22;20172;47.530;10.256;2024-03-17T05:01:08;6.80;99.90
33881;DHT22;20172;47.530;10.256;2024-03-17T05:03:34;6.80;99.90
33881;DHT22;20172;47.530;10.256;2024-03-17T05:06:03;6.80;99.90
33881;DHT22;20172;47.530;10.256;2024-03-17T05:08:29;6.80;99.90
33881;DHT22;20172;47.530;10.256;2024-03-17T05:11:04;6.80;99.90
33881;DHT22;20172;47.530;10.256;2024-03-17T05:13:30;6.70;99.90
33881;DHT22;20172;47.530;10.256;2024-03-17T05:15:56;6.70;99.90
33881;DHT22;20172;47.530;10.256;2024-03-17T05:18:23;6.70;99.90
33881;DHT22;20172;47.530;10.256;2024-03-17T05:21:00;6.60;99.90
33881;DHT22;20172;47.530;10.256;2024-03-17T05:23:30;6.60;99.90
33881;DHT22;20172;47.530;10.256;2024-03-17T05:25:56;6.60;99.90
33881;DHT22;20172;47.530;10.256;2024-03-17T05:28:22;6.60;99.90
33881;DHT22;20172;47.530;10.256;2024-03-17T05:30:48;6.50;99.90
33881;DHT22;20172;47.530;10.256;2024-03-17T05:33:19;6.50;99.90
33881;DHT22;20172;47.530;10.256;2024-03-17T05:38:15;6.60;99.90
33881;DHT22;20172;47.530;10.256;2024-03-17T05:40:40;6.60;99.90
33881;DHT22;20172;47.530;10.256;2024-03-17T05:43:06;6.60;99.90
33881;DHT22;20172;47.530;10.256;2024-03-17T05:45:32;6.60;99.90
33881;DHT22;20172;47.530;10.256;2024-03-17T05:47:57;6.70;99.90
33881;DHT22;20172;47.530;10.256;2024-03-17T05:50:23;6.60;99.90
33881;DHT22;20172;47.530;10.256;2024-03-17T05:52:48;6.50;99.90
33881;DHT22;20172;47.530;10.256;2024-03-17T05:55:14;6.40;99.90
33881;DHT22;20172;47.530;10.256;2024-03-17T05:57:39;6.40;99.90
33881;DHT22;20172;47.530;10.256;2024-03-17T06:00:06;6.30;99.90
33881;DHT22;20172;47.530;10.256;2024-03-17T06:02:32;6.30;99.90
33881;DHT22;20172;47.530;10.256;2024-03-17T06:04:57;6.30;99.90
33881;DHT22;20172;47.530;10.256;2024-03-17T06:07:29;6.40;99.90
33881;DHT22;20172;47.530;10.256;2024-03-17T06:09:56;6.50;99.90
33881;DHT22;20172;47.530;10.256;2024-03-17T06:12:21;6.50;99.90
33881;DHT22;20172;47.530;10.256;2024-03-17T06:14:47;6.50;99.90
33881;DHT22;20172;47.530;10.256;2024-03-17T06:17:12;6.50;99.90
33881;DHT22;20172;47.530;10.256;2024-03-17T06:19:38;6.60;99.90
33881;DHT22;20172;47.530;10.256;2024-03-17T06:22:03;6.60;99.90
33881;DHT22;20172;47.530;10.256;2024-03-17T06:24:30;6.70;99.90
33881;DHT22;20172;47.530;10.256;2024-03-17T06:26:56;6.80;99.90
33881;DHT22;20172;47.530;10.256;2024-03-17T06:29:21;6.90;99.90
33881;DHT22;20172;47.530;10.256;2024-03-17T06:31:47;6.90;99.90
33881;DHT22;20172;47.530;10.256;2024-03-17T06:34:12;7.00;99.90
33881;DHT22;20172;47.530;10.256;2024-03-17T06:36:40;7.10;99.90
33881;DHT22;20172;47.530;10.256;2024-03-17T06:39:05;7.20;99.90
33881;DHT22;20172;47.530;10.256;2024-03-17T06:41:31;7.20;99.90
33881;DHT22;20172;47.530;10.256;2024-03-17T06:43:56;7.40;99.90
33881;DHT22;20172;47.530;10.256;2024-03-17T06:46:23;7.40;99.90
33881;DHT22;20172;47.530;10.256;2024-03-17T06:48:48;7.40;99.90
33881;DHT22;20172;47.530;10.256;2024-03-17T06:51:14;7.40;99.90
33881;DHT22;20172;47.530;10.256;2024-03-17T06:53:39;7.30;99.90
33881;DHT22;20172;47.530;10.256;2024-03-17T06:56:05;7.40;99.90
33881;DHT22;20172;47.530;10.256;2024-03-17T06:58:31;7.50;99.90
33881;DHT22;20172;47.530;10.256;2024-03-17T07:00:58;7.70;99.90
33881;DHT22;20172;47.530;10.256;2024-03-17T07:03:28;7.70;99.90
33881;DHT22;20172;47.530;10.256;2024-03-17T07:05:58;7.70;99.90
33881;DHT22;20172;47.530;10.256;2024-03-17T07:08:24;7.60;99.90
33881;DHT22;20172;47.530;10.256;2024-03-17T07:11:03;7.70;99.90
33881;DHT22;20172;47.530;10.256;2024-03-17T07:13:29;7.80;99.90
33881;DHT22;20172;47.530;10.256;2024-03-17T07:15:55;8.00;99.90
33881;DHT22;20172;47.530;10.256;2024-03-17T07:18:21;8.20;99.90
33881;DHT22;20172;47.530;10.256;2024-03-17T07:20:46;8.30;99.90
33881;DHT22;20172;47.530;10.256;2024-03-17T07:23:16;8.50;99.90
33881;DHT22;20172;47.530;10.256;2024-03-17T07:25:42;8.60;99.90
33881;DHT22;20172;47.530;10.256;2024-03-17T07:28:08;8.60;99.90
33881;DHT22;20172;47.530;10.256;2024-03-17T07:30:33;8.70;99.90
33881;DHT22;20172;47.530;10.256;2024-03-17T07:32:59;8.80;99.90
33881;DHT22;20172;47.530;10.256;2024-03-17T07:35:24;9.00;99.90
33881;DHT22;20172;47.530;10.256;2024-03-17T07:37:50;9.10;99.90
33881;DHT22;20172;47.530;10.256;2024-03-17T07:40:16;9.30;99.90
33881;DHT22;20172;47.530;10.256;2024-03-17T07:42:42;9.30;99.90
33881;DHT22;20172;47.530;10.256;2024-03-17T07:45:07;9.30;99.90
33881;DHT22;20172;47.530;10.256;2024-03-17T07:47:33;9.30;99.90
33881;DHT22;20172;47.530;10.256;2024-03-17T07:50:02;9.30;99.90
33881;DHT22;20172;47.530;10.256;2024-03-17T07:52:29;9.40;99.90
33881;DHT22;20172;47.530;10.256;2024-03-17T07:54:55;9.70;99.90
33881;DHT22;20172;47.530;10.256;2024-03-17T07:57:21;10.00;99.90
33881;DHT22;20172;47.530;10.256;2024-03-17T07:59:49;10.20;99.90
33881;DHT22;20172;47.530;10.256;2024-03-17T08:02:14;10.30;99.90
33881;DHT22;20172;47.530;10.256;2024-03-17T08:04:40;10.50;99.90
33881;DHT22;20172;47.530;10.256;2024-03-17T08:07:11;10.40;99.90
33881;DHT22;20172;47.530;10.256;2024-03-17T08:09:49;10.50;99.90
33881;DHT22;20172;47.530;10.256;2024-03-17T08:12:41;10.60;99.90
33881;DHT22;20172;47.530;10.256;2024-03-17T08:15:36;10.80;99.90
33881;DHT22;20172;47.530;10.256;2024-03-17T08:18:11;10.90;99.90
33881;DHT22;20172;47.530;10.256;2024-03-17T08:21:02;11.00;99.90
33881;DHT22;20172;47.530;10.256;2024-03-17T08:23:51;11.20;99.90
33881;DHT22;20172;47.530;10.256;2024-03-17T08:26:18;11.40;99.90
33881;DHT22;20172;47.530;10.256;2024-03-17T08:28:44;11.40;99.90
33881;DHT22;20172;47.530;10.256;2024-03-17T08:31:12;11.50;99.90
33881;DHT22;20172;47.530;10.256;2024-03-17T08:33:41;11.80;99.90
33881;DHT22;20172;47.530;10.256;2024-03-17T08:36:07;12.10;99.90
33881;DHT22;20172;47.530;10.256;2024-03-17T08:38:33;12.40;99.90
33881;DHT22;20172;47.530;10.256;2024-03-17T08:41:07;12.60;99.90
33881;DHT22;20172;47.530;10.256;2024-03-17T08:43:37;12.80;99.90
33881;DHT22;20172;47.530;10.256;2024-03-17T08:46:04;12.80;99.90
33881;DHT22;20172;47.530;10.256;2024-03-17T08:48:34;13.00;99.90
33881;DHT22;20172;47.530;10.256;2024-03-17T08:51:02;13.20;99.90
33881;DHT22;20172;47.530;10.256;2024-03-17T08:53:28;13.40;99.90
33881;DHT22;20172;47.530;10.256;2024-03-17T08:55:54;13.60;99.90
33881;DHT22;20172;47.530;10.256;2024-03-17T08:58:20;13.70;99.90
33881;DHT22;20172;47.530;10.256;2024-03-17T09:00:46;13.70;99.90
33881;DHT22;20172;47.530;10.256;2024-03-17T09:03:12;13.80;99.90
33881;DHT22;20172;47.530;10.256;2024-03-17T09:05:38;14.00;99.90
33881;DHT22;20172;47.530;10.256;2024-03-17T09:08:05;14.30;99.90
33881;DHT22;20172;47.530;10.256;2024-03-17T09:10:30;14.40;99.90
33881;DHT22;20172;47.530;10.256;2024-03-17T09:12:58;14.50;99.90
33881;DHT22;20172;47.530;10.256;2024-03-17T09:15:24;14.60;99.90
33881;DHT22;20172;47.530;10.256;2024-03-17T09:17:50;14.70;99.90
33881;DHT22;20172;47.530;10.256;2024-03-17T09:20:15;14.70;99.90
33881;DHT22;20172;47.530;10.256;2024-03-17T09:22:42;14.80;99.90
33881;DHT22;20172;47.530;10.256;2024-03-17T09:25:08;14.80;99.90
33881;DHT22;20172;47.530;10.256;2024-03-17T09:27:34;14.80;99.90
33881;DHT22;20172;47.530;10.256;2024-03-17T09:29:59;14.90;99.90
33881;DHT22;20172;47.530;10.256;2024-03-17T09:32:25;15.10;99.90
33881;DHT22;20172;47.530;10.256;2024-03-17T09:34:51;15.20;99.90
33881;DHT22;20172;47.530;10.256;2024-03-17T09:37:16;15.30;99.90
33881;DHT22;20172;47.530;10.256;2024-03-17T09:39:42;15.50;99.90
33881;DHT22;20172;47.530;10.256;2024-03-17T09:42:15;15.60;99.90
33881;DHT22;20172;47.530;10.256;2024-03-17T09:44:42;15.50;99.90
33881;DHT22;20172;47.530;10.256;2024-03-17T09:47:08;15.60;99.90
33881;DHT22;20172;47.530;10.256;2024-03-17T09:49:40;15.60;99.90
33881;DHT22;20172;47.530;10.256;2024-03-17T09:52:05;15.50;99.90
33881;DHT22;20172;47.530;10.256;2024-03-17T09:54:38;15.60;99.90
33881;DHT22;20172;47.530;10.256;2024-03-17T09:57:06;15.60;99.90
33881;DHT22;20172;47.530;10.256;2024-03-17T09:59:34;15.60;99.90
33881;DHT22;20172;47.530;10.256;2024-03-17T10:01:59;15.70;99.90
33881;DHT22;20172;47.530;10.256;2024-03-17T10:04:33;15.70;99.90
33881;DHT22;20172;47.530;10.256;2024-03-17T10:06:59;15.70;99.90
33881;DHT22;20172;47.530;10.256;2024-03-17T10:09:24;15.90;99.90
33881;DHT22;20172;47.530;10.256;2024-03-17T10:11:50;16.20;99.90
33881;DHT22;20172;47.530;10.256;2024-03-17T10:14:16;16.60;99.90
33881;DHT22;20172;47.530;10.256;2024-03-17T10:16:42;16.90;99.90
33881;DHT22;20172;47.530;10.256;2024-03-17T10:19:16;17.10;99.90
33881;DHT22;20172;47.530;10.256;2024-03-17T10:21:47;17.30;99.90
33881;DHT22;20172;47.530;10.256;2024-03-17T10:24:25;17.30;99.90
33881;DHT22;20172;47.530;10.256;2024-03-17T10:26:55;17.30;99.90
33881;DHT22;20172;47.530;10.256;2024-03-17T10:31:53;17.50;99.90
33881;DHT22;20172;47.530;10.256;2024-03-17T10:34:19;17.60;99.90
33881;DHT22;20172;47.530;10.256;2024-03-17T10:36:45;17.60;99.90
33881;DHT22;20172;47.530;10.256;2024-03-17T10:39:25;17.70;99.90
33881;DHT22;20172;47.530;10.256;2024-03-17T10:41:59;17.70;99.90
33881;DHT22;20172;47.530;10.256;2024-03-17T10:44:25;17.60;99.90
33881;DHT22;20172;47.530;10.256;2024-03-17T10:46:52;17.60;99.90
33881;DHT22;20172;47.530;10.256;2024-03-17T10:49:19;17.50;99.90
33881;DHT22;20172;47.530;10.256;2024-03-17T10:51:47;17.50;99.90
33881;DHT22;20172;47.530;10.256;2024-03-17T10:54:17;17.50;99.90
33881;DHT22;20172;47.530;10.256;2024-03-17T10:56:46;17.80;99.90
33881;DHT22;20172;47.530;10.256;2024-03-17T10:59:12;17.70;99.90
33881;DHT22;20172;47.530;10.256;2024-03-17T11:01:38;17.80;99.90
33881;DHT22;20172;47.530;10.256;2024-03-17T11:04:04;18.00;99.90
33881;DHT22;20172;47.530;10.256;2024-03-17T11:06:30;18.20;99.90
33881;DHT22;20172;47.530;10.256;2024-03-17T11:08:56;18.30;99.90
33881;DHT22;20172;47.530;10.256;2024-03-17T11:11:37;18.30;99.90
33881;DHT22;20172;47.530;10.256;2024-03-17T11:14:17;18.50;99.90
33881;DHT22;20172;47.530;10.256;2024-03-17T11:16:47;18.70;99.90
33881;DHT22;20172;47.530;10.256;2024-03-17T11:19:16;19.00;99.40
33881;DHT22;20172;47.530;10.256;2024-03-17T11:21:42;19.00;98.60
33881;DHT22;20172;47.530;10.256;2024-03-17T11:24:18;19.10;97.40
33881;DHT22;20172;47.530;10.256;2024-03-17T11:26:44;19.30;97.30
33881;DHT22;20172;47.530;10.256;2024-03-17T11:29:25;19.70;97.00
33881;DHT22;20172;47.530;10.256;2024-03-17T11:31:51;20.10;96.50
33881;DHT22;20172;47.530;10.256;2024-03-17T11:34:36;20.30;95.60
33881;DHT22;20172;47.530;10.256;2024-03-17T11:37:02;20.40;94.80
33881;DHT22;20172;47.530;10.256;2024-03-17T11:39:48;20.20;94.20
33881;DHT22;20172;47.530;10.256;2024-03-17T11:42:15;20.10;94.90
33881;DHT22;20172;47.530;10.256;2024-03-17T11:45:01;20.10;94.40
33881;DHT22;20172;47.530;10.256;2024-03-17T11:47:33;20.20;94.00
33881;DHT22;20172;47.530;10.256;2024-03-17T11:50:01;20.30;93.80
33881;DHT22;20172;47.530;10.256;2024-03-17T11:52:27;20.50;93.80
33881;DHT22;20172;47.530;10.256;2024-03-17T11:54:52;20.60;93.10
33881;DHT22;20172;47.530;10.256;2024-03-17T11:57:22;20.50;92.80
33881;DHT22;20172;47.530;10.256;2024-03-17T11:59:51;20.60;92.70
33881;DHT22;20172;47.530;10.256;2024-03-17T12:02:20;20.80;92.40
33881;DHT22;20172;47.530;10.256;2024-03-17T12:04:46;20.70;91.80
33881;DHT22;20172;47.530;10.256;2024-03-17T12:07:18;20.70;91.70
33881;DHT22;20172;47.530;10.256;2024-03-17T12:09:44;20.80;91.40
33881;DHT22;20172;47.530;10.256;2024-03-17T12:12:19;20.80;91.00
33881;DHT22;20172;47.530;10.256;2024-03-17T12:14:46;21.00;90.30
33881;DHT22;20172;47.530;10.256;2024-03-17T12:17:12;21.20;90.40
33881;DHT22;20172;47.530;10.256;2024-03-17T12:19:39;21.60;89.80
33881;DHT22;20172;47.530;10.256;2024-03-17T12:22:05;21.90;87.90
33881;DHT22;20172;47.530;10.256;2024-03-17T12:24:35;22.40;87.00
33881;DHT22;20172;47.530;10.256;2024-03-17T12:27:03;22.50;84.20
33881;DHT22;20172;47.530;10.256;2024-03-17T12:29:30;22.60;82.90
33881;DHT22;20172;47.530;10.256;2024-03-17T12:31:58;22.80;82.50
33881;DHT22;20172;47.530;10.256;2024-03-17T12:34:25;23.00;82.60
33881;DHT22;20172;47.530;10.256;2024-03-17T12:36:52;23.10;80.50
33881;DHT22;20172;47.530;10.256;2024-03-17T12:44:54;22.10;80.50
33881;DHT22;20172;47.530;10.256;2024-03-17T12:47:25;21.90;81.10
33881;DHT22;20172;47.530;10.256;2024-03-17T12:49:52;21.90;82.00
33881;DHT22;20172;47.530;10.256;2024-03-17T12:52:22;21.70;81.60
33881;DHT22;20172;47.530;10.256;2024-03-17T12:57:52;21.30;82.60
33881;DHT22;20172;47.530;10.256;2024-03-17T13:00:37;21.20;82.80
33881;DHT22;20172;47.530;10.256;2024-03-17T13:03:03;21.20;83.00
33881;DHT22;20172;47.530;10.256;2024-03-17T13:05:29;21.10;83.10
33881;DHT22;20172;47.530;10.256;2024-03-17T13:07:55;21.10;83.10
33881;DHT22;20172;47.530;10.256;2024-03-17T13:10:22;20.80;82.70
33881;DHT22;20172;47.530;10.256;2024-03-17T13:12:48;20.50;83.10
33881;DHT22;20172;47.530;10.256;2024-03-17T13:15:17;20.30;84.00
33881;DHT22;20172;47.530;10.256;2024-03-17T13:17:45;20.10;80.50
33881;DHT22;20172;47.530;10.256;2024-03-17T13:20:12;19.90;81.10
33881;DHT22;20172;47.530;10.256;2024-03-17T13:22:38;19.90;81.70
33881;DHT22;20172;47.530;10.256;2024-03-17T13:25:07;20.00;81.50
33881;DHT22;20172;47.530;10.256;2024-03-17T13:27:33;20.10;81.00
33881;DHT22;20172;47.530;10.256;2024-03-17T13:29:59;20.20;80.30
33881;DHT22;20172;47.530;10.256;2024-03-17T13:32:25;20.10;80.50
33881;DHT22;20172;47.530;10.256;2024-03-17T13:34:52;19.90;80.00
33881;DHT22;20172;47.530;10.256;2024-03-17T13:37:17;19.90;79.60
33881;DHT22;20172;47.530;10.256;2024-03-17T13:39:42;19.90;79.80
33881;DHT22;20172;47.530;10.256;2024-03-17T13:42:08;19.90;79.00
33881;DHT22;20172;47.530;10.256;2024-03-17T13:44:33;19.80;81.20
33881;DHT22;20172;47.530;10.256;2024-03-17T13:46:59;19.80;80.50
33881;DHT22;20172;47.530;10.256;2024-03-17T13:49:29;19.50;80.10
33881;DHT22;20172;47.530;10.256;2024-03-17T13:51:54;19.30;80.00
33881;DHT22;20172;47.530;10.256;2024-03-17T13:54:20;18.90;79.00
33881;DHT22;20172;47.530;10.256;2024-03-17T13:56:48;18.70;79.20
33881;DHT22;20172;47.530;10.256;2024-03-17T13:59:14;18.80;79.30
33881;DHT22;20172;47.530;10.256;2024-03-17T14:01:40;18.80;79.50
33881;DHT22;20172;47.530;10.256;2024-03-17T14:04:10;18.80;80.10
33881;DHT22;20172;47.530;10.256;2024-03-17T14:06:38;18.70;81.10
33881;DHT22;20172;47.530;10.256;2024-03-17T14:09:03;18.50;80.80
33881;DHT22;20172;47.530;10.256;2024-03-17T14:11:30;18.50;80.60
33881;DHT22;20172;47.530;10.256;2024-03-17T14:13:58;18.40;80.80
33881;DHT22;20172;47.530;10.256;2024-03-17T14:16:23;18.20;80.90
33881;DHT22;20172;47.530;10.256;2024-03-17T14:18:49;18.20;81.70
33881;DHT22;20172;47.530;10.256;2024-03-17T14:21:14;18.30;80.80
33881;DHT22;20172;47.530;10.256;2024-03-17T14:23:40;18.30;81.30
33881;DHT22;20172;47.530;10.256;2024-03-17T14:26:07;18.00;82.20
33881;DHT22;20172;47.530;10.256;2024-03-17T14:28:32;17.60;82.00
33881;DHT22;20172;47.530;10.256;2024-03-17T14:30:58;17.50;83.60
33881;DHT22;20172;47.530;10.256;2024-03-17T14:33:23;17.40;83.70
33881;DHT22;20172;47.530;10.256;2024-03-17T14:35:59;16.90;84.70
33881;DHT22;20172;47.530;10.256;2024-03-17T14:38:25;16.70;85.10
33881;DHT22;20172;47.530;10.256;2024-03-17T14:40:51;16.30;86.50
33881;DHT22;20172;47.530;10.256;2024-03-17T14:43:16;16.10;86.60
33881;DHT22;20172;47.530;10.256;2024-03-17T14:45:42;16.00;87.90
33881;DHT22;20172;47.530;10.256;2024-03-17T14:48:07;15.70;88.90
33881;DHT22;20172;47.530;10.256;2024-03-17T14:50:35;15.60;89.10
33881;DHT22;20172;47.530;10.256;2024-03-17T14:53:01;15.30;89.40
33881;DHT22;20172;47.530;10.256;2024-03-17T14:55:27;15.20;90.10
33881;DHT22;20172;47.530;10.256;2024-03-17T14:57:53;15.10;90.20
33881;DHT22;20172;47.530;10.256;2024-03-17T15:00:19;14.90;90.80
33881;DHT22;20172;47.530;10.256;2024-03-17T15:02:45;14.70;90.50
33881;DHT22;20172;47.530;10.256;2024-03-17T15:05:15;14.70;90.80
33881;DHT22;20172;47.530;10.256;2024-03-17T15:07:41;14.60;90.90
33881;DHT22;20172;47.530;10.256;2024-03-17T15:10:06;14.50;91.30
33881;DHT22;20172;47.530;10.256;2024-03-17T15:12:32;14.40;91.50
33881;DHT22;20172;47.530;10.256;2024-03-17T15:14:58;14.40;91.80
33881;DHT22;20172;47.530;10.256;2024-03-17T15:17:23;14.40;92.00
33881;DHT22;20172;47.530;10.256;2024-03-17T15:19:49;14.40;91.90
33881;DHT22;20172;47.530;10.256;2024-03-17T15:22:14;14.30;92.40
33881;DHT22;20172;47.530;10.256;2024-03-17T15:24:40;14.30;92.70
33881;DHT22;20172;47.530;10.256;2024-03-17T15:27:06;14.20;92.90
33881;DHT22;20172;47.530;10.256;2024-03-17T15:29:31;14.10;93.00
33881;DHT22;20172;47.530;10.256;2024-03-17T15:31:57;13.80;93.40
33881;DHT22;20172;47.530;10.256;2024-03-17T15:34:23;13.80;93.90
33881;DHT22;20172;47.530;10.256;2024-03-17T15:36:48;13.70;93.80
33881;DHT22;20172;47.530;10.256;2024-03-17T15:39:15;13.60;94.00